Pagrindinis puslapis
METAR-TAF:

METAR-TAF

Oro uostai :

Venas, Mikronezija

platuma: 07-28N, ilguma: 151-51E, Aukštis: 3 m

Dabartinis oras

Ataskaita buvo paskelbta 28 minutes, ne 04:51 UTC
Vėjas 6 kt nuo kintamojo kryptimis
Temperatūra 29°C
Drėgmė 89%
Slėgis 1010 hPa
Matomumas: 24.1 km
Mažai debesys ne aukštis 1400 ft
Išsisklaidę debesys ne aukštis 12000 ft
Su prošvaistėmis ne aukštis 28000 ft

METAR: PTKK 290451Z VRB06KT 15SM FEW014 SCT120 BKN280 29/27 A2983 RMK SLP101 T02910274

Laikas: 15:19 (05:19 UTC)

Prognozė

Ataskaita buvo paskelbta 5 valandos ir 59 minutes, ne 23:20 UTC
Prognozė galioja nuo 29 metu 00 UTC su 29 metu 24 UTC
Vėjas 8 kt iš Šiaurės Rytų
Matomumas: 10 km
Išsisklaidę debesys ne aukštis 1600 ft
Su prošvaistėmis ne aukštis 12000 ft
Liūtis kaimynystėje
Laikinai
nuo 29 metu 00 UTC su 29 metu 02 UTC
Matomumas: 8.0 km
Išsisklaidę debesys ne aukštis 1300 ft
Su prošvaistėmis ne aukštis 3000 ft
lietus

TAF: PTKK 282320Z 2900/2924 04008KT P6SM VCSH SCT016 BKN120 TEMPO 2900/2902 5SM -SHRA SCT013 BKN030

Orai ataskaitas ir orų prognozės (METAR, TAF).

turimą stotys yra geltonos ir raudonos taškus žemėlapyje.

Perkelti pele per norėdami pamatyti stoties vardą.

Tada spustelėkite, norėdami matyti oro stebėjimo ir prognozės.

Norėdami pakeisti žemėlapį: spustelėkite ant žalios mygtukų su juodo kryžiaus žemyn,; žalią mygtuką su brūkšneliu, jei norite nutolinti; arba žalių rodyklių gretimoms žemėlapius.


METAR-TAF: